Time;durP1;ratioP1;P1;durP2;ratioP2;P2;SDS_P1;SDS_P2;PMS_P1;PMS_P2;Temp;Humidity;BMP_temperature;BMP_pressure;BME280_temperature;BME280_humidity;BME280_pressure;Samples;Min_cycle;Max_cycle;Signal;HPM_P1;HPM_P2
2023/05/21 00:00:46;;;;;;;15.70;13.53;;;16.80;99.90;;;;;;5039032;28;20191;-69
2023/05/21 00:03:12;;;;;;;15.47;14.00;;;16.90;99.90;;;;;;5039011;28;20203;-69
2023/05/21 00:05:39;;;;;;;13.70;12.30;;;16.90;99.90;;;;;;5036996;28;20281;-71
2023/05/21 00:08:05;;;;;;;13.77;12.37;;;16.90;99.90;;;;;;5036821;28;20207;-68
2023/05/21 00:10:30;;;;;;;16.63;13.57;;;17.00;99.90;;;;;;5034529;28;20257;-70
2023/05/21 00:12:56;;;;;;;14.90;13.40;;;17.00;99.90;;;;;;5033319;28;20217;-70
2023/05/21 00:15:22;;;;;;;15.53;14.00;;;17.00;99.90;;;;;;5035244;28;20202;-68
2023/05/21 00:17:47;;;;;;;13.90;12.43;;;17.00;99.90;;;;;;5035411;28;20696;-69
2023/05/21 00:20:13;;;;;;;16.13;13.93;;;16.90;99.90;;;;;;5038346;28;20261;-69
2023/05/21 00:22:39;;;;;;;14.77;13.20;;;16.90;99.90;;;;;;5036861;28;20195;-67
2023/05/21 00:25:05;;;;;;;14.97;13.30;;;16.90;99.90;;;;;;5033088;28;20204;-70
2023/05/21 00:27:31;;;;;;;14.67;13.23;;;16.80;99.90;;;;;;5038442;28;20227;-68
2023/05/21 00:29:56;;;;;;;15.07;13.60;;;16.80;99.90;;;;;;5035520;28;20602;-66
2023/05/21 00:32:22;;;;;;;15.77;14.20;;;16.80;99.90;;;;;;5038335;28;20666;-66
2023/05/21 00:34:47;;;;;;;16.37;14.63;;;16.60;99.90;;;;;;5037993;28;20546;-66
2023/05/21 00:37:14;;;;;;;14.53;13.20;;;16.60;99.90;;;;;;5038241;28;20223;-66
2023/05/21 00:39:39;;;;;;;19.47;13.93;;;16.60;99.90;;;;;;5037686;28;20695;-66
2023/05/21 00:42:05;;;;;;;16.27;14.57;;;16.60;99.90;;;;;;5038179;28;20211;-67
2023/05/21 00:44:33;;;;;;;15.37;13.83;;;16.60;99.90;;;;;;5035729;28;20592;-67
2023/05/21 00:47:00;;;;;;;15.20;13.80;;;16.40;99.90;;;;;;5038417;28;20206;-66
2023/05/21 00:49:27;;;;;;;15.17;13.77;;;16.40;99.90;;;;;;5038116;28;21483;-66
2023/05/21 00:51:53;;;;;;;15.80;14.30;;;16.30;99.90;;;;;;5037618;28;20190;-66
2023/05/21 00:54:19;;;;;;;15.40;13.87;;;16.40;99.90;;;;;;5038120;28;20202;-67
2023/05/21 00:56:46;;;;;;;14.73;13.20;;;16.40;99.90;;;;;;5036005;28;20199;-67
2023/05/21 00:59:12;;;;;;;15.57;13.97;;;16.40;99.90;;;;;;5035747;28;20215;-66
2023/05/21 01:01:37;;;;;;;15.93;13.10;;;16.40;99.90;;;;;;5031578;28;20210;-66
2023/05/21 01:04:03;;;;;;;16.97;13.70;;;16.40;99.90;;;;;;5037924;28;20194;-67
2023/05/21 01:06:28;;;;;;;15.17;13.00;;;16.40;99.90;;;;;;5035735;28;20202;-65
2023/05/21 01:08:55;;;;;;;15.67;14.20;;;16.40;99.90;;;;;;5034914;28;20303;-64
2023/05/21 01:11:36;;;;;;;15.00;13.27;;;16.40;99.90;;;;;;5032759;28;20313;-64
2023/05/21 01:14:03;;;;;;;14.73;13.23;;;16.30;99.90;;;;;;5037464;28;20210;-64
2023/05/21 01:16:31;;;;;;;15.20;13.60;;;16.30;99.90;;;;;;5035803;28;20709;-64
2023/05/21 01:18:56;;;;;;;14.63;13.10;;;16.30;99.90;;;;;;5028025;28;20242;-64
2023/05/21 01:21:24;;;;;;;14.70;13.30;;;16.30;99.90;;;;;;5027650;28;20235;-66
2023/05/21 01:23:50;;;;;;;13.80;12.40;;;16.30;99.90;;;;;;5029300;28;20661;-66
2023/05/21 01:26:15;;;;;;;14.93;13.43;;;16.20;99.90;;;;;;5026263;28;20210;-65
2023/05/21 01:28:41;;;;;;;14.10;12.67;;;16.20;99.90;;;;;;5026299;28;20205;-65
2023/05/21 01:31:22;;;;;;;16.43;13.20;;;16.20;99.90;;;;;;5021587;28;20234;-63
2023/05/21 01:33:50;;;;;;;17.27;14.40;;;16.20;99.90;;;;;;5026994;28;20222;-64
2023/05/21 01:36:23;;;;;;;14.23;12.93;;;16.20;99.90;;;;;;5024329;28;20230;-65
2023/05/21 01:39:03;;;;;;;14.93;13.43;;;16.20;99.90;;;;;;5027636;28;20219;-64
2023/05/21 01:41:34;;;;;;;13.87;12.50;;;16.20;99.90;;;;;;5025380;28;20230;-65
2023/05/21 01:44:02;;;;;;;14.57;13.23;;;16.20;99.90;;;;;;5026835;28;20289;-65
2023/05/21 01:46:30;;;;;;;15.37;13.53;;;16.10;99.90;;;;;;5026781;28;20296;-65
2023/05/21 01:48:56;;;;;;;16.40;14.80;;;16.10;99.90;;;;;;5028696;28;20233;-65
2023/05/21 01:51:23;;;;;;;16.00;13.60;;;16.20;99.90;;;;;;5034510;28;20265;-65
2023/05/21 01:53:48;;;;;;;15.80;14.27;;;16.10;99.90;;;;;;5036780;28;20210;-65
2023/05/21 01:56:14;;;;;;;15.33;13.73;;;16.10;99.90;;;;;;5035803;28;20198;-64
2023/05/21 01:58:40;;;;;;;15.57;14.03;;;16.10;99.90;;;;;;5036611;28;20214;-64
2023/05/21 02:01:06;;;;;;;16.23;14.53;;;16.10;99.90;;;;;;5034518;28;20205;-64
2023/05/21 02:03:31;;;;;;;16.20;14.27;;;16.10;99.90;;;;;;5036178;28;20292;-65
2023/05/21 02:05:57;;;;;;;15.13;13.17;;;16.10;99.90;;;;;;5035820;28;20615;-64
2023/05/21 02:08:22;;;;;;;17.77;15.87;;;16.10;99.90;;;;;;5032615;28;20573;-64
2023/05/21 02:10:49;;;;;;;16.30;14.60;;;16.00;99.90;;;;;;5035705;28;20285;-64
2023/05/21 02:13:14;;;;;;;16.87;14.40;;;15.90;99.90;;;;;;5031267;28;20212;-64
2023/05/21 02:15:40;;;;;;;16.97;15.37;;;15.90;99.90;;;;;;5034729;28;20195;-64
2023/05/21 02:18:07;;;;;;;18.40;16.07;;;15.80;99.90;;;;;;5027741;28;21012;-64
2023/05/21 02:20:32;;;;;;;17.07;15.37;;;15.80;99.90;;;;;;5026696;28;20676;-65
2023/05/21 02:22:58;;;;;;;15.30;13.70;;;15.90;99.90;;;;;;5025526;28;20357;-65
2023/05/21 02:25:23;;;;;;;17.80;15.80;;;15.90;99.90;;;;;;5026112;28;20582;-64
2023/05/21 02:27:52;;;;;;;16.80;15.10;;;15.90;99.90;;;;;;5026363;28;20265;-64
2023/05/21 02:30:17;;;;;;;17.30;15.10;;;15.90;99.90;;;;;;5026129;28;20254;-64
2023/05/21 02:32:43;;;;;;;16.60;15.00;;;15.90;99.90;;;;;;5026507;28;20705;-64
2023/05/21 02:35:10;;;;;;;17.70;15.90;;;15.90;99.90;;;;;;5022814;28;20211;-64
2023/05/21 02:37:36;;;;;;;17.97;16.00;;;15.90;99.90;;;;;;5029917;28;20778;-65
2023/05/21 02:40:04;;;;;;;16.73;14.00;;;15.90;99.90;;;;;;5025910;28;20190;-64
2023/05/21 02:42:30;;;;;;;16.87;15.27;;;15.90;99.90;;;;;;5024823;28;20281;-64
2023/05/21 02:44:56;;;;;;;19.50;15.93;;;15.80;99.90;;;;;;5026428;28;20657;-65
2023/05/21 02:47:22;;;;;;;16.43;14.83;;;15.80;99.90;;;;;;5025182;28;20207;-65
2023/05/21 02:49:49;;;;;;;16.23;14.70;;;15.80;99.90;;;;;;5026539;28;20202;-65
2023/05/21 02:52:17;;;;;;;18.53;16.47;;;15.80;99.90;;;;;;5025937;28;20299;-64
2023/05/21 02:54:43;;;;;;;18.37;15.87;;;15.70;99.90;;;;;;5026190;28;20209;-65
2023/05/21 02:57:08;;;;;;;18.53;16.57;;;15.70;99.90;;;;;;5024670;28;20297;-65
2023/05/21 02:59:34;;;;;;;18.57;16.33;;;15.70;99.90;;;;;;5027340;28;20208;-64
2023/05/21 03:01:59;;;;;;;19.40;17.30;;;15.70;99.90;;;;;;5029132;28;20955;-68
2023/05/21 03:04:27;;;;;;;18.60;16.70;;;15.70;99.90;;;;;;5025256;28;20195;-69
2023/05/21 03:06:53;;;;;;;19.50;17.50;;;15.70;99.90;;;;;;5025478;28;20199;-66
2023/05/21 03:09:20;;;;;;;20.37;18.40;;;15.70;99.90;;;;;;5025540;28;20207;-66
2023/05/21 03:11:46;;;;;;;20.23;18.20;;;15.80;99.90;;;;;;5026118;28;20886;-68
2023/05/21 03:14:12;;;;;;;19.37;17.30;;;15.80;99.90;;;;;;5029312;28;20673;-64
2023/05/21 03:16:40;;;;;;;20.10;18.17;;;15.80;99.90;;;;;;5026190;28;20570;-65
2023/05/21 03:19:09;;;;;;;20.57;18.57;;;15.80;99.90;;;;;;5028506;28;20618;-65
2023/05/21 03:21:35;;;;;;;20.07;18.13;;;15.80;99.90;;;;;;5030129;28;20230;-65
2023/05/21 03:24:01;;;;;;;18.17;16.37;;;15.70;99.90;;;;;;5030700;28;21537;-65
2023/05/21 03:26:28;;;;;;;19.83;17.83;;;15.70;99.90;;;;;;5030524;28;20203;-64
2023/05/21 03:28:54;;;;;;;19.67;17.77;;;15.80;99.90;;;;;;5030123;28;20280;-65
2023/05/21 03:31:20;;;;;;;20.63;17.27;;;15.80;99.90;;;;;;5027581;28;20199;-65
2023/05/21 03:33:46;;;;;;;21.60;19.23;;;15.70;99.90;;;;;;5030316;28;20213;-65
2023/05/21 03:36:11;;;;;;;21.40;18.70;;;15.70;99.90;;;;;;5028114;28;20329;-65
2023/05/21 03:38:36;;;;;;;21.50;18.70;;;15.80;99.90;;;;;;5028591;28;20557;-65
2023/05/21 03:41:02;;;;;;;21.07;18.93;;;15.80;99.90;;;;;;5027224;28;20199;-64
2023/05/21 03:43:28;;;;;;;21.67;19.53;;;15.80;99.90;;;;;;5034638;28;20202;-65
2023/05/21 03:45:54;;;;;;;19.87;17.87;;;15.80;99.90;;;;;;5029283;28;20557;-64
2023/05/21 03:48:19;;;;;;;21.30;19.13;;;15.80;99.90;;;;;;5026639;28;20207;-65
2023/05/21 03:50:45;;;;;;;20.67;18.40;;;15.80;99.90;;;;;;5030002;28;20669;-65
2023/05/21 03:53:11;;;;;;;21.67;19.37;;;15.80;99.90;;;;;;5029611;28;20233;-64
2023/05/21 03:55:37;;;;;;;21.50;18.87;;;15.80;99.90;;;;;;5028862;28;20207;-64
2023/05/21 03:58:04;;;;;;;22.13;19.93;;;15.90;99.90;;;;;;5023778;28;20245;-65
2023/05/21 04:00:31;;;;;;;24.03;20.73;;;16.00;99.90;;;;;;5029099;28;20205;-65
2023/05/21 04:02:57;;;;;;;21.53;19.37;;;16.00;99.90;;;;;;5031564;28;20494;-65
2023/05/21 04:05:23;;;;;;;31.77;20.90;;;16.00;99.90;;;;;;5027121;28;20476;-66
2023/05/21 04:07:48;;;;;;;22.17;19.87;;;16.00;99.90;;;;;;5028994;28;20200;-65
2023/05/21 04:10:15;;;;;;;22.73;20.07;;;16.10;99.90;;;;;;5031779;28;20306;-66
2023/05/21 04:12:40;;;;;;;22.30;20.07;;;16.20;99.90;;;;;;5029301;28;20573;-66
2023/05/21 04:15:06;;;;;;;23.90;19.90;;;16.10;99.90;;;;;;5029265;28;20220;-66
2023/05/21 04:17:34;;;;;;;22.00;19.83;;;16.20;99.90;;;;;;5029918;28;20246;-66
2023/05/21 04:19:59;;;;;;;21.47;19.37;;;16.20;99.90;;;;;;5029418;28;20215;-66
2023/05/21 04:22:28;;;;;;;22.37;20.17;;;16.20;99.90;;;;;;5026645;28;20203;-66
2023/05/21 04:24:53;;;;;;;22.07;19.83;;;16.20;99.90;;;;;;5028158;28;20200;-66
2023/05/21 04:27:22;;;;;;;21.67;19.57;;;16.20;99.90;;;;;;5027895;28;20540;-66
2023/05/21 04:29:48;;;;;;;23.13;20.83;;;16.10;99.90;;;;;;5026657;28;20643;-66
2023/05/21 04:32:16;;;;;;;24.50;19.93;;;16.20;99.90;;;;;;5029093;28;20212;-66
2023/05/21 04:34:42;;;;;;;23.13;20.67;;;16.30;99.90;;;;;;5028950;28;20233;-65
2023/05/21 04:37:08;;;;;;;23.47;20.73;;;16.20;99.90;;;;;;5028777;28;20693;-65
2023/05/21 04:39:33;;;;;;;20.90;18.83;;;16.20;99.90;;;;;;5029002;28;20360;-66
2023/05/21 04:42:00;;;;;;;21.63;19.57;;;16.30;99.90;;;;;;5026598;28;20218;-66
2023/05/21 04:44:26;;;;;;;21.83;19.63;;;16.30;99.90;;;;;;5029864;28;20654;-66
2023/05/21 04:46:53;;;;;;;22.63;19.73;;;16.30;99.90;;;;;;5026285;28;20199;-66
2023/05/21 04:49:19;;;;;;;24.60;20.83;;;16.30;99.90;;;;;;5031501;28;20210;-66
2023/05/21 04:51:45;;;;;;;21.37;19.27;;;16.30;99.90;;;;;;5029172;28;20212;-65
2023/05/21 04:54:11;;;;;;;22.77;20.57;;;16.30;99.90;;;;;;5031918;28;20202;-65
2023/05/21 04:56:36;;;;;;;22.00;19.53;;;16.40;99.90;;;;;;5027490;28;20210;-65
2023/05/21 04:59:02;;;;;;;22.80;20.53;;;16.60;99.90;;;;;;5025298;28;20228;-66
2023/05/21 05:01:28;;;;;;;22.30;19.40;;;16.70;99.90;;;;;;5028587;28;20728;-66
2023/05/21 05:03:54;;;;;;;21.73;19.43;;;16.70;99.90;;;;;;5028438;28;20217;-65
2023/05/21 05:06:20;;;;;;;21.93;19.73;;;16.70;99.90;;;;;;5025757;28;20195;-66
2023/05/21 05:08:45;;;;;;;22.67;20.40;;;16.80;99.90;;;;;;5027747;28;20245;-65
2023/05/21 05:11:12;;;;;;;21.77;19.57;;;16.90;99.90;;;;;;5027511;28;20199;-66
2023/05/21 05:13:40;;;;;;;23.40;21.13;;;17.00;99.90;;;;;;5027866;28;20205;-65
2023/05/21 05:16:06;;;;;;;23.27;20.63;;;17.10;99.90;;;;;;5026605;28;20200;-66
2023/05/21 05:18:32;;;;;;;22.13;19.83;;;17.20;99.90;;;;;;5027597;28;20223;-65
2023/05/21 05:20:58;;;;;;;21.93;19.83;;;17.30;99.90;;;;;;5029751;28;20200;-65
2023/05/21 05:23:24;;;;;;;22.80;20.70;;;17.40;99.90;;;;;;5025408;28;20255;-65
2023/05/21 05:25:49;;;;;;;22.60;20.37;;;17.40;99.90;;;;;;5028318;28;20751;-65
2023/05/21 05:28:14;;;;;;;23.10;20.67;;;17.50;99.90;;;;;;5028701;28;20194;-65
2023/05/21 05:30:40;;;;;;;22.10;19.90;;;17.50;99.90;;;;;;5025597;28;20203;-65
2023/05/21 05:33:05;;;;;;;22.50;20.17;;;17.50;99.90;;;;;;5026801;28;20313;-66
2023/05/21 05:35:31;;;;;;;21.07;19.17;;;17.60;99.90;;;;;;5027094;28;20294;-65
2023/05/21 05:37:57;;;;;;;23.17;20.77;;;17.50;99.90;;;;;;5029575;28;20216;-65
2023/05/21 05:40:22;;;;;;;21.90;19.60;;;17.60;99.90;;;;;;5024160;28;20211;-65
2023/05/21 05:42:48;;;;;;;21.73;19.50;;;17.50;99.90;;;;;;5025720;28;20806;-65
2023/05/21 05:45:14;;;;;;;21.70;19.23;;;17.60;99.90;;;;;;5027791;28;20632;-65
2023/05/21 05:47:39;;;;;;;21.23;19.03;;;17.80;99.90;;;;;;5028161;28;20242;-65
2023/05/21 05:50:05;;;;;;;23.33;19.33;;;17.80;99.90;;;;;;5027991;28;20579;-65
2023/05/21 05:52:31;;;;;;;26.53;19.27;;;17.80;99.90;;;;;;5027802;28;20222;-65
2023/05/21 05:54:56;;;;;;;20.37;18.30;;;17.90;99.90;;;;;;5027848;28;20277;-65
2023/05/21 05:57:22;;;;;;;22.13;19.97;;;17.80;99.90;;;;;;5025148;28;20256;-66
2023/05/21 05:59:47;;;;;;;22.07;19.07;;;17.80;99.90;;;;;;5026621;28;20217;-65
2023/05/21 06:02:13;;;;;;;20.23;18.33;;;17.90;99.90;;;;;;5026872;28;20535;-65
2023/05/21 06:04:38;;;;;;;21.63;19.43;;;17.90;99.90;;;;;;5027152;28;20203;-66
2023/05/21 06:07:04;;;;;;;21.07;18.93;;;18.00;99.90;;;;;;5026861;28;20216;-65
2023/05/21 06:09:29;;;;;;;20.27;18.43;;;18.00;99.90;;;;;;5025474;28;20192;-66
2023/05/21 06:11:55;;;;;;;20.40;18.27;;;17.90;99.90;;;;;;5027345;28;20241;-65
2023/05/21 06:14:20;;;;;;;22.57;19.10;;;18.00;99.90;;;;;;5027562;28;20211;-66
2023/05/21 06:16:46;;;;;;;21.43;18.17;;;18.00;99.90;;;;;;5026377;28;20227;-66
2023/05/21 06:19:11;;;;;;;20.33;18.27;;;18.00;99.90;;;;;;5029908;28;20241;-69
2023/05/21 06:21:37;;;;;;;20.40;18.43;;;18.10;99.90;;;;;;5033473;28;20203;-64
2023/05/21 06:24:02;;;;;;;18.00;16.30;;;18.30;99.90;;;;;;5031524;28;20692;-65
2023/05/21 06:26:27;;;;;;;20.23;17.70;;;18.20;99.90;;;;;;5031691;28;20199;-68
2023/05/21 06:28:53;;;;;;;19.73;17.70;;;18.20;99.90;;;;;;5036551;28;20209;-66
2023/05/21 06:31:21;;;;;;;19.27;17.27;;;18.30;99.90;;;;;;5031972;28;20203;-63
2023/05/21 06:33:48;;;;;;;19.13;17.37;;;18.40;99.90;;;;;;5031617;28;20701;-65
2023/05/21 06:36:14;;;;;;;19.27;17.27;;;18.50;99.90;;;;;;5034588;28;20694;-64
2023/05/21 06:38:39;;;;;;;18.70;16.97;;;18.60;99.90;;;;;;5036836;28;20218;-64
2023/05/21 06:41:05;;;;;;;18.63;16.90;;;18.50;99.90;;;;;;5036390;28;20693;-65
2023/05/21 06:43:31;;;;;;;19.93;17.93;;;18.50;99.90;;;;;;5030966;28;20282;-65
2023/05/21 06:45:56;;;;;;;19.73;16.87;;;18.40;99.90;;;;;;5032205;28;20198;-65
2023/05/21 06:48:22;;;;;;;18.67;16.70;;;18.40;99.90;;;;;;5033908;28;20202;-64
2023/05/21 06:50:47;;;;;;;19.57;17.77;;;18.50;99.90;;;;;;5030559;28;20212;-65
2023/05/21 06:53:15;;;;;;;18.87;16.87;;;18.60;99.90;;;;;;5035943;28;20240;-64
2023/05/21 06:55:43;;;;;;;20.93;17.27;;;18.70;99.90;;;;;;5035701;28;20733;-65
2023/05/21 06:58:09;;;;;;;18.87;17.07;;;18.60;99.90;;;;;;5031150;28;20240;-64
2023/05/21 07:00:35;;;;;;;19.77;17.40;;;18.70;99.90;;;;;;5028696;28;20578;-64
2023/05/21 07:03:00;;;;;;;20.47;18.47;;;18.70;99.90;;;;;;5036347;28;20285;-65
2023/05/21 07:05:26;;;;;;;18.53;16.67;;;18.90;99.90;;;;;;5036313;28;20955;-65
2023/05/21 07:07:51;;;;;;;18.50;16.43;;;18.90;99.90;;;;;;5032985;28;20236;-66
2023/05/21 07:10:17;;;;;;;18.40;16.33;;;18.90;99.90;;;;;;5033040;28;20710;-65
2023/05/21 07:12:42;;;;;;;18.10;16.27;;;18.90;99.90;;;;;;5036422;28;20196;-66
2023/05/21 07:15:08;;;;;;;17.97;16.13;;;18.80;99.90;;;;;;5035966;28;20217;-65
2023/05/21 07:17:34;;;;;;;19.20;17.40;;;18.90;99.90;;;;;;5036060;28;20257;-65
2023/05/21 07:19:59;;;;;;;16.90;15.27;;;19.10;99.90;;;;;;5035777;28;20188;-66
2023/05/21 07:22:25;;;;;;;17.60;15.87;;;19.20;99.90;;;;;;5035211;28;20195;-76
2023/05/21 07:24:51;;;;;;;17.60;15.67;;;19.30;99.90;;;;;;5036289;28;20566;-78
2023/05/21 07:27:17;;;;;;;17.37;15.67;;;19.30;99.90;;;;;;5035571;28;20204;-77
2023/05/21 07:29:42;;;;;;;17.20;15.53;;;19.40;99.90;;;;;;5036011;28;20692;-76
2023/05/21 07:32:07;;;;;;;18.27;15.97;;;19.50;99.90;;;;;;5033360;28;20185;-75
2023/05/21 07:34:33;;;;;;;15.40;13.90;;;19.60;99.90;;;;;;5034704;28;20249;-77
2023/05/21 07:36:59;;;;;;;15.93;14.43;;;19.60;99.90;;;;;;5033605;28;20232;-77
2023/05/21 07:39:24;;;;;;;20.40;15.57;;;19.80;99.90;;;;;;5031306;28;20362;-77
2023/05/21 07:41:50;;;;;;;15.03;13.50;;;19.90;99.90;;;;;;5035845;28;20223;-77
2023/05/21 07:44:15;;;;;;;15.13;13.70;;;20.00;99.90;;;;;;5026796;28;20204;-76
2023/05/21 07:46:41;;;;;;;14.77;13.27;;;20.20;99.90;;;;;;5028577;28;20632;-72
2023/05/21 07:49:06;;;;;;;15.83;13.53;;;20.20;99.90;;;;;;5035637;28;20208;-73
2023/05/21 07:51:32;;;;;;;13.97;12.57;;;20.30;99.90;;;;;;5028826;28;20250;-72
2023/05/21 07:53:57;;;;;;;16.50;15.03;;;20.20;99.90;;;;;;5034969;28;20198;-78
2023/05/21 07:56:23;;;;;;;17.40;14.83;;;20.20;99.90;;;;;;5030965;28;20293;-76
2023/05/21 07:58:49;;;;;;;15.67;14.17;;;20.40;99.90;;;;;;5035664;28;20725;-75
2023/05/21 08:01:14;;;;;;;14.37;12.97;;;20.30;99.90;;;;;;5036393;28;20305;-76
2023/05/21 08:03:40;;;;;;;11.97;10.77;;;20.40;99.90;;;;;;5037461;28;20598;-74
2023/05/21 08:06:05;;;;;;;13.20;12.03;;;20.50;99.90;;;;;;5039008;28;20213;-76
2023/05/21 08:08:31;;;;;;;16.20;14.57;;;20.50;99.90;;;;;;5039379;28;20317;-72
2023/05/21 08:10:56;;;;;;;15.10;13.73;;;20.70;99.90;;;;;;5034325;28;20209;-71
2023/05/21 08:13:22;;;;;;;14.13;12.77;;;20.80;99.90;;;;;;5038795;28;20248;-72
2023/05/21 08:15:48;;;;;;;12.90;11.80;;;21.10;99.90;;;;;;5027891;28;20205;-70
2023/05/21 08:18:13;;;;;;;12.73;11.57;;;21.10;99.90;;;;;;5033816;28;20308;-71
2023/05/21 08:20:40;;;;;;;13.63;11.70;;;21.10;99.90;;;;;;5037357;28;20201;-73
2023/05/21 08:23:05;;;;;;;11.80;10.70;;;21.20;99.90;;;;;;5029282;28;20366;-71
2023/05/21 08:25:31;;;;;;;13.03;11.73;;;21.30;99.90;;;;;;5029164;28;20751;-71
2023/05/21 08:27:56;;;;;;;15.23;11.23;;;21.40;99.90;;;;;;5028041;28;20257;-69
2023/05/21 08:30:22;;;;;;;14.80;11.50;;;21.50;99.90;;;;;;5025244;28;20629;-71
2023/05/21 08:32:48;;;;;;;12.10;10.90;;;21.40;99.90;;;;;;5027681;28;20211;-71
2023/05/21 08:35:13;;;;;;;13.20;11.83;;;21.50;99.90;;;;;;5028331;28;20419;-71
2023/05/21 08:37:39;;;;;;;13.40;12.10;;;21.70;99.90;;;;;;5031337;28;20226;-71
2023/05/21 08:40:05;;;;;;;12.70;11.40;;;21.90;99.90;;;;;;5038034;28;20201;-71
2023/05/21 08:42:46;;;;;;;18.87;12.07;;;22.10;99.90;;;;;;5036495;28;20203;-74
2023/05/21 08:45:13;;;;;;;12.83;11.40;;;22.10;99.90;;;;;;5038605;28;20309;-72
2023/05/21 08:47:42;;;;;;;14.20;12.20;;;22.30;99.90;;;;;;5038476;28;20210;-72
2023/05/21 08:50:18;;;;;;;12.43;10.87;;;22.40;99.90;;;;;;5038558;28;20202;-72
2023/05/21 08:52:43;;;;;;;13.07;11.87;;;22.30;99.90;;;;;;5038505;28;20206;-73
2023/05/21 08:55:09;;;;;;;11.87;10.97;;;22.50;99.90;;;;;;5036927;28;20209;-74
2023/05/21 08:57:36;;;;;;;11.10;10.10;;;22.60;99.90;;;;;;5032761;28;20221;-74
2023/05/21 09:00:05;;;;;;;11.87;10.87;;;22.70;99.90;;;;;;5037564;28;20191;-69
2023/05/21 09:02:35;;;;;;;12.73;11.63;;;22.80;99.90;;;;;;5037915;28;20233;-73
2023/05/21 09:05:02;;;;;;;18.77;11.27;;;22.70;99.90;;;;;;5036050;28;20285;-80
2023/05/21 09:07:29;;;;;;;11.90;10.77;;;22.70;99.90;;;;;;5036387;28;20205;-74
2023/05/21 09:10:06;;;;;;;10.80;9.80;;;22.60;99.90;;;;;;5037866;28;20609;-74
2023/05/21 09:12:33;;;;;;;12.07;10.97;;;22.80;99.90;;;;;;5035697;28;20202;-78
2023/05/21 09:15:00;;;;;;;12.03;10.30;;;22.80;99.90;;;;;;5037849;28;20198;-78
2023/05/21 09:17:25;;;;;;;11.70;10.57;;;22.80;99.90;;;;;;5036582;28;20291;-74
2023/05/21 09:20:10;;;;;;;12.23;11.07;;;22.70;99.90;;;;;;5037256;28;20206;-75
2023/05/21 09:22:40;;;;;;;12.40;10.63;;;22.90;99.90;;;;;;5037778;28;20289;-75
2023/05/21 09:25:09;;;;;;;12.23;10.53;;;23.00;99.90;;;;;;5032288;28;20694;-75
2023/05/21 09:27:35;;;;;;;11.13;10.13;;;23.00;99.90;;;;;;5037566;28;20297;-73
2023/05/21 09:30:08;;;;;;;11.47;10.13;;;23.10;99.90;;;;;;5035591;28;20294;-75
2023/05/21 09:32:33;;;;;;;10.50;9.50;;;23.10;99.90;;;;;;5039124;28;20283;-79
2023/05/21 09:35:10;;;;;;;11.00;9.27;;;23.20;99.90;;;;;;5037190;28;20205;-75
2023/05/21 09:37:37;;;;;;;9.70;8.50;;;23.30;99.90;;;;;;5035229;28;20700;-74
2023/05/21 09:40:14;;;;;;;9.70;8.90;;;23.40;99.90;;;;;;5037616;28;20206;-76
2023/05/21 09:42:50;;;;;;;10.63;9.73;;;23.30;99.90;;;;;;5033177;28;20198;-75
2023/05/21 09:45:24;;;;;;;10.07;9.07;;;23.40;99.90;;;;;;5038491;28;20295;-75
2023/05/21 09:47:51;;;;;;;11.27;9.13;;;23.50;99.90;;;;;;5037853;28;20203;-75
2023/05/21 09:50:19;;;;;;;13.60;8.87;;;23.50;99.90;;;;;;5036217;28;20625;-75
2023/05/21 09:52:44;;;;;;;10.30;8.37;;;23.60;99.90;;;;;;5035787;28;20831;-74
2023/05/21 09:55:11;;;;;;;10.07;9.07;;;23.70;99.90;;;;;;5037440;28;20209;-75
2023/05/21 09:57:42;;;;;;;16.07;9.47;;;23.80;99.90;;;;;;5038119;28;20222;-74
2023/05/21 10:00:16;;;;;;;9.80;8.90;;;23.90;99.90;;;;;;5032944;28;20282;-75
2023/05/21 10:02:45;;;;;;;9.63;8.77;;;24.00;99.90;;;;;;5031682;28;20192;-74
2023/05/21 10:05:12;;;;;;;9.77;8.77;;;24.10;99.90;;;;;;5020341;28;20531;-75
2023/05/21 10:07:41;;;;;;;10.03;9.13;;;24.10;99.90;;;;;;5023069;28;20688;-75
2023/05/21 10:10:10;;;;;;;8.97;8.07;;;24.10;99.90;;;;;;5021218;28;20203;-75
2023/05/21 10:12:37;;;;;;;8.77;8.07;;;24.50;99.50;;;;;;5020341;28;20682;-76
2023/05/21 10:15:05;;;;;;;8.47;7.67;;;24.50;99.20;;;;;;5020069;28;20204;-77
2023/05/21 10:17:31;;;;;;;9.50;8.05;;;24.60;99.20;;;;;;5019617;28;20209;-75
2023/05/21 10:19:58;;;;;;;9.98;8.40;;;24.60;99.20;;;;;;5022068;28;20201;-76
2023/05/21 10:22:24;;;;;;;9.27;8.37;;;24.70;98.60;;;;;;5020351;28;20294;-75
2023/05/21 10:24:51;;;;;;;9.25;8.40;;;24.70;98.80;;;;;;5022572;28;20330;-77
2023/05/21 10:27:18;;;;;;;9.20;8.32;;;24.90;98.50;;;;;;5020788;28;20193;-75
2023/05/21 10:29:44;;;;;;;8.10;7.38;;;25.00;98.80;;;;;;5022668;28;20190;-74
2023/05/21 10:32:13;;;;;;;9.85;8.95;;;25.20;98.60;;;;;;5021404;28;20744;-74
2023/05/21 10:34:39;;;;;;;8.52;7.63;;;25.30;97.80;;;;;;5020616;28;20698;-74
2023/05/21 10:37:08;;;;;;;8.65;7.88;;;25.20;97.60;;;;;;5022964;28;20225;-75
2023/05/21 10:39:34;;;;;;;8.45;7.78;;;25.10;98.80;;;;;;5022879;28;20226;-76
2023/05/21 10:42:20;;;;;;;9.60;8.23;;;25.30;97.40;;;;;;5021573;28;20191;-75
2023/05/21 10:44:58;;;;;;;7.95;7.18;;;25.40;97.10;;;;;;5019695;28;20557;-74
2023/05/21 10:47:51;;;;;;;10.00;7.35;;;25.40;96.60;;;;;;5022955;28;20861;-77
2023/05/21 10:50:52;;;;;;;8.90;7.70;;;25.60;96.40;;;;;;5018134;28;20222;-72
2023/05/21 10:53:45;;;;;;;8.75;7.90;;;25.50;96.50;;;;;;5019274;28;20195;-73
2023/05/21 10:56:20;;;;;;;9.52;7.47;;;25.60;96.30;;;;;;5026059;28;20839;-74
2023/05/21 10:59:17;;;;;;;8.27;7.57;;;25.50;96.30;;;;;;5035994;28;20730;-74
2023/05/21 11:01:44;;;;;;;7.78;6.97;;;25.50;96.70;;;;;;5035737;28;20774;-74
2023/05/21 11:04:11;;;;;;;7.20;6.68;;;25.60;95.80;;;;;;5034023;28;20286;-73
2023/05/21 11:06:36;;;;;;;7.65;6.85;;;25.50;96.10;;;;;;5035958;28;20441;-74
2023/05/21 11:09:15;;;;;;;7.38;6.78;;;25.40;95.90;;;;;;5035472;28;20236;-74
2023/05/21 11:11:48;;;;;;;7.75;6.95;;;25.40;95.70;;;;;;5034154;28;20191;-74
2023/05/21 11:14:35;;;;;;;7.82;7.13;;;25.70;95.30;;;;;;5031457;28;20207;-73
2023/05/21 11:17:07;;;;;;;7.60;6.78;;;25.80;94.90;;;;;;5036303;28;20190;-74
2023/05/21 11:19:35;;;;;;;9.52;6.97;;;26.00;94.30;;;;;;5036063;28;20214;-74
2023/05/21 11:22:08;;;;;;;7.68;6.78;;;26.10;94.10;;;;;;5035896;28;20250;-74
2023/05/21 11:24:37;;;;;;;12.93;6.93;;;26.20;93.80;;;;;;5031022;28;20281;-75
2023/05/21 11:27:04;;;;;;;9.00;6.32;;;26.10;94.50;;;;;;5031473;28;20656;-74
2023/05/21 11:29:43;;;;;;;8.82;6.40;;;25.80;94.00;;;;;;5035994;28;20291;-75
2023/05/21 11:32:11;;;;;;;6.55;5.95;;;25.80;94.70;;;;;;5035464;28;20200;-73
2023/05/21 11:34:44;;;;;;;8.93;7.20;;;26.00;93.30;;;;;;5032127;28;20205;-74
2023/05/21 11:37:22;;;;;;;6.68;6.20;;;26.20;93.70;;;;;;5035439;28;20233;-73
2023/05/21 11:39:48;;;;;;;7.25;6.57;;;26.60;92.30;;;;;;5034252;28;20662;-73
2023/05/21 11:42:31;;;;;;;8.10;6.65;;;26.80;91.80;;;;;;5038501;28;20601;-74
2023/05/21 11:44:58;;;;;;;8.65;6.93;;;27.00;91.00;;;;;;5036971;28;20207;-74
2023/05/21 11:47:25;;;;;;;7.38;6.20;;;26.90;91.40;;;;;;5034463;28;20198;-73
2023/05/21 11:50:03;;;;;;;13.40;6.72;;;26.90;90.80;;;;;;5039075;28;20688;-74
2023/05/21 11:52:30;;;;;;;9.30;7.70;;;26.80;91.30;;;;;;5037407;28;20604;-74
2023/05/21 11:54:56;;;;;;;6.70;6.05;;;27.00;90.40;;;;;;5037984;28;20200;-73
2023/05/21 11:57:27;;;;;;;10.38;7.13;;;27.00;89.60;;;;;;5022101;28;20197;-73
2023/05/21 11:59:53;;;;;;;8.68;7.20;;;27.20;90.00;;;;;;5023023;28;20675;-73
2023/05/21 12:02:20;;;;;;;6.18;5.50;;;27.30;90.60;;;;;;5023539;28;20202;-73
2023/05/21 12:04:47;;;;;;;7.63;6.82;;;27.40;87.60;;;;;;5023384;28;20632;-73
2023/05/21 12:07:14;;;;;;;6.93;6.32;;;27.40;90.00;;;;;;5021445;28;20195;-74
2023/05/21 12:09:40;;;;;;;11.57;6.47;;;27.60;85.80;;;;;;5028709;28;20207;-74
2023/05/21 12:12:07;;;;;;;6.00;5.55;;;27.40;85.70;;;;;;5038320;28;20195;-74
2023/05/21 12:14:36;;;;;;;7.57;6.85;;;27.20;87.70;;;;;;5033718;28;20251;-74
2023/05/21 12:17:03;;;;;;;6.22;5.72;;;27.30;88.70;;;;;;5037697;28;20201;-75
2023/05/21 12:19:36;;;;;;;6.72;6.10;;;27.30;84.60;;;;;;5038809;28;20214;-75
2023/05/21 12:22:03;;;;;;;7.30;6.60;;;27.10;86.00;;;;;;5038617;28;20670;-75
2023/05/21 12:24:29;;;;;;;7.70;5.90;;;26.90;88.00;;;;;;5034719;28;20205;-74
2023/05/21 12:27:00;;;;;;;6.88;5.78;;;27.10;88.00;;;;;;5036164;28;20201;-73
2023/05/21 12:29:30;;;;;;;10.82;6.13;;;27.40;84.90;;;;;;5034205;28;20213;-75
2023/05/21 12:32:00;;;;;;;7.15;6.45;;;27.60;82.50;;;;;;5038382;28;20695;-74